sensor_id;sensor_type;location;lat;lon;timestamp;pressure;altitude;pressure_sealevel;temperature;humidity
14041;BME280;7095;51.388;6.196;2023-08-31T00:00:16;97120.22;;;-145.32;100.00
14041;BME280;7095;51.388;6.196;2023-08-31T00:02:45;97893.50;;;-145.32;100.00
14041;BME280;7095;51.388;6.196;2023-08-31T00:05:13;97377.97;;;-145.32;100.00
14041;BME280;7095;51.388;6.196;2023-08-31T00:07:42;98409.13;;;-145.32;100.00
14041;BME280;7095;51.388;6.196;2023-08-31T00:10:10;98409.13;;;-145.32;100.00
14041;BME280;7095;51.388;6.196;2023-08-31T00:12:40;99182.69;;;-145.32;100.00
14041;BME280;7095;51.388;6.196;2023-08-31T00:15:09;99440.56;;;-145.32;100.00
14041;BME280;7095;51.388;6.196;2023-08-31T00:17:38;99698.47;;;-145.32;100.00
14041;BME280;7095;51.388;6.196;2023-08-31T00:20:07;99698.47;;;-145.32;100.00
14041;BME280;7095;51.388;6.196;2023-08-31T00:22:39;100472.31;;;-145.32;100.00
14041;BME280;7095;51.388;6.196;2023-08-31T00:25:07;100472.31;;;-145.32;100.00
14041;BME280;7095;51.388;6.196;2023-08-31T00:27:36;100214.34;;;-145.32;100.00
14041;BME280;7095;51.388;6.196;2023-08-31T00:30:07;100472.31;;;-145.32;100.00
14041;BME280;7095;51.388;6.196;2023-08-31T00:32:36;100472.31;;;-145.32;100.00
14041;BME280;7095;51.388;6.196;2023-08-31T00:35:07;100730.31;;;-145.32;100.00
14041;BME280;7095;51.388;6.196;2023-08-31T00:37:35;100214.34;;;-145.32;100.00
14041;BME280;7095;51.388;6.196;2023-08-31T00:40:04;100472.31;;;-145.32;100.00
14041;BME280;7095;51.388;6.196;2023-08-31T00:42:35;100730.31;;;-145.32;100.00
14041;BME280;7095;51.388;6.196;2023-08-31T00:45:07;100730.31;;;-145.32;100.00
14041;BME280;7095;51.388;6.196;2023-08-31T00:47:37;100730.31;;;-145.32;100.00
14041;BME280;7095;51.388;6.196;2023-08-31T00:50:07;101246.34;;;-145.32;100.00
14041;BME280;7095;51.388;6.196;2023-08-31T00:52:36;101246.34;;;-145.32;100.00
14041;BME280;7095;51.388;6.196;2023-08-31T00:55:05;101504.38;;;-145.32;100.00
14041;BME280;7095;51.388;6.196;2023-08-31T00:57:35;101246.34;;;-145.32;100.00
14041;BME280;7095;51.388;6.196;2023-08-31T01:00:06;102020.53;;;-145.32;100.00
14041;BME280;7095;51.388;6.196;2023-08-31T01:02:41;102278.66;;;-145.32;100.00
14041;BME280;7095;51.388;6.196;2023-08-31T01:05:29;102794.91;;;-145.32;100.00
14041;BME280;7095;51.388;6.196;2023-08-31T01:08:17;102536.75;;;-145.32;100.00
14041;BME280;7095;51.388;6.196;2023-08-31T01:10:58;103053.06;;;-145.32;100.00
14041;BME280;7095;51.388;6.196;2023-08-31T01:13:31;103569.44;;;-145.32;100.00
14041;BME280;7095;51.388;6.196;2023-08-31T01:16:05;103311.25;;;-145.32;100.00
14041;BME280;7095;51.388;6.196;2023-08-31T01:18:38;103827.66;;;-145.32;100.00
14041;BME280;7095;51.388;6.196;2023-08-31T01:21:12;104085.91;;;-145.32;100.00
14041;BME280;7095;51.388;6.196;2023-08-31T01:23:57;104344.16;;;-145.32;100.00
14041;BME280;7095;51.388;6.196;2023-08-31T01:26:25;104085.91;;;-145.32;100.00
14041;BME280;7095;51.388;6.196;2023-08-31T01:28:55;104344.16;;;-145.32;100.00
14041;BME280;7095;51.388;6.196;2023-08-31T01:31:24;104602.44;;;-145.32;100.00
14041;BME280;7095;51.388;6.196;2023-08-31T01:33:52;105119.03;;;-145.32;100.00
14041;BME280;7095;51.388;6.196;2023-08-31T01:36:27;104860.72;;;-145.32;100.00
14041;BME280;7095;51.388;6.196;2023-08-31T01:39:00;105377.34;;;-145.32;100.00
14041;BME280;7095;51.388;6.196;2023-08-31T01:41:33;105119.03;;;-145.32;100.00
14041;BME280;7095;51.388;6.196;2023-08-31T01:44:03;105635.72;;;-145.32;100.00
14041;BME280;7095;51.388;6.196;2023-08-31T01:46:32;105894.09;;;-145.32;100.00
14041;BME280;7095;51.388;6.196;2023-08-31T01:49:04;106410.88;;;-145.32;100.00
14041;BME280;7095;51.388;6.196;2023-08-31T01:51:33;106669.31;;;-145.32;100.00
14041;BME280;7095;51.388;6.196;2023-08-31T01:54:03;106669.31;;;-145.32;100.00
14041;BME280;7095;51.388;6.196;2023-08-31T01:56:31;106927.75;;;-145.32;100.00
14041;BME280;7095;51.388;6.196;2023-08-31T01:59:00;106927.75;;;-145.32;100.00
14041;BME280;7095;51.388;6.196;2023-08-31T02:01:28;106927.75;;;-145.32;100.00
14041;BME280;7095;51.388;6.196;2023-08-31T02:03:57;106927.75;;;-145.32;100.00
14041;BME280;7095;51.388;6.196;2023-08-31T02:06:27;107703.22;;;-145.32;100.00
14041;BME280;7095;51.388;6.196;2023-08-31T02:08:55;107703.22;;;-145.32;100.00
14041;BME280;7095;51.388;6.196;2023-08-31T02:11:25;107703.22;;;-145.32;100.00
14041;BME280;7095;51.388;6.196;2023-08-31T02:13:55;107703.22;;;-145.32;100.00
14041;BME280;7095;51.388;6.196;2023-08-31T02:16:23;107703.22;;;-145.32;100.00
14041;BME280;7095;51.388;6.196;2023-08-31T02:18:52;108220.28;;;-145.32;100.00
14041;BME280;7095;51.388;6.196;2023-08-31T02:21:22;108220.28;;;-145.32;100.00
14041;BME280;7095;51.388;6.196;2023-08-31T02:23:52;107961.72;;;-145.32;100.00
14041;BME280;7095;51.388;6.196;2023-08-31T02:26:21;108220.28;;;-145.32;100.00
14041;BME280;7095;51.388;6.196;2023-08-31T02:28:51;108737.41;;;-145.32;100.00
14041;BME280;7095;51.388;6.196;2023-08-31T02:31:19;108478.84;;;-145.32;100.00
14041;BME280;7095;51.388;6.196;2023-08-31T02:33:48;108220.28;;;-145.32;100.00
14041;BME280;7095;51.388;6.196;2023-08-31T02:36:16;108737.41;;;-145.32;100.00
14041;BME280;7095;51.388;6.196;2023-08-31T02:38:47;108478.84;;;-145.32;100.00
14041;BME280;7095;51.388;6.196;2023-08-31T02:41:16;108737.41;;;-145.32;100.00
14041;BME280;7095;51.388;6.196;2023-08-31T02:43:45;109254.63;;;-145.32;100.00
14041;BME280;7095;51.388;6.196;2023-08-31T02:46:15;109513.28;;;-145.32;100.00
14041;BME280;7095;51.388;6.196;2023-08-31T02:48:44;109254.63;;;-145.32;100.00
14041;BME280;7095;51.388;6.196;2023-08-31T02:51:14;108996.00;;;-145.32;100.00
14041;BME280;7095;51.388;6.196;2023-08-31T02:53:42;109254.63;;;-145.32;100.00
14041;BME280;7095;51.388;6.196;2023-08-31T02:56:11;109513.28;;;-145.32;100.00
14041;BME280;7095;51.388;6.196;2023-08-31T02:58:40;109513.28;;;-145.32;100.00
14041;BME280;7095;51.388;6.196;2023-08-31T03:01:09;109254.63;;;-145.32;100.00
14041;BME280;7095;51.388;6.196;2023-08-31T03:03:43;109254.63;;;-145.32;100.00
14041;BME280;7095;51.388;6.196;2023-08-31T03:06:13;109771.94;;;-145.32;100.00
14041;BME280;7095;51.388;6.196;2023-08-31T03:08:42;110030.59;;;-145.32;100.00
14041;BME280;7095;51.388;6.196;2023-08-31T03:11:12;110030.59;;;-145.32;100.00
14041;BME280;7095;51.388;6.196;2023-08-31T03:13:41;110289.28;;;-145.32;100.00
14041;BME280;7095;51.388;6.196;2023-08-31T03:16:11;110548.00;;;-145.32;100.00
14041;BME280;7095;51.388;6.196;2023-08-31T03:18:42;110548.00;;;-145.32;100.00
14041;BME280;7095;51.388;6.196;2023-08-31T03:21:12;110289.28;;;-145.32;100.00
14041;BME280;7095;51.388;6.196;2023-08-31T03:23:40;110548.00;;;-145.32;100.00
14041;BME280;7095;51.388;6.196;2023-08-31T03:26:09;110289.28;;;-145.32;100.00
14041;BME280;7095;51.388;6.196;2023-08-31T03:28:38;110289.28;;;-145.32;100.00
14041;BME280;7095;51.388;6.196;2023-08-31T03:31:08;110289.28;;;-145.32;100.00
14041;BME280;7095;51.388;6.196;2023-08-31T03:33:36;110030.59;;;-145.32;100.00
14041;BME280;7095;51.388;6.196;2023-08-31T03:36:06;110030.59;;;-145.32;100.00
14041;BME280;7095;51.388;6.196;2023-08-31T03:38:35;110289.28;;;-145.32;100.00
14041;BME280;7095;51.388;6.196;2023-08-31T03:41:05;110030.59;;;-145.32;100.00
14041;BME280;7095;51.388;6.196;2023-08-31T03:43:34;110030.59;;;-145.32;100.00
14041;BME280;7095;51.388;6.196;2023-08-31T03:46:02;110030.59;;;-145.32;100.00
14041;BME280;7095;51.388;6.196;2023-08-31T03:48:31;110289.28;;;-145.32;100.00
14041;BME280;7095;51.388;6.196;2023-08-31T03:50:59;110289.28;;;-145.32;100.00
14041;BME280;7095;51.388;6.196;2023-08-31T03:53:29;110289.28;;;-145.32;100.00
14041;BME280;7095;51.388;6.196;2023-08-31T03:55:59;110289.28;;;-145.32;100.00
14041;BME280;7095;51.388;6.196;2023-08-31T03:58:28;110548.00;;;-145.32;100.00
14041;BME280;7095;51.388;6.196;2023-08-31T04:00:56;110548.00;;;-145.32;100.00
14041;BME280;7095;51.388;6.196;2023-08-31T04:03:25;110806.75;;;-145.32;100.00
14041;BME280;7095;51.388;6.196;2023-08-31T04:05:54;110548.00;;;-145.32;100.00
14041;BME280;7095;51.388;6.196;2023-08-31T04:08:23;110289.28;;;-145.32;100.00
14041;BME280;7095;51.388;6.196;2023-08-31T04:10:52;110289.28;;;-145.32;100.00
14041;BME280;7095;51.388;6.196;2023-08-31T04:13:21;110548.00;;;-145.32;100.00
14041;BME280;7095;51.388;6.196;2023-08-31T04:15:49;110289.28;;;-145.32;100.00
14041;BME280;7095;51.388;6.196;2023-08-31T04:18:18;110548.00;;;-145.32;100.00
14041;BME280;7095;51.388;6.196;2023-08-31T04:20:48;110548.00;;;-145.32;100.00
14041;BME280;7095;51.388;6.196;2023-08-31T04:23:18;110806.75;;;-145.32;100.00
14041;BME280;7095;51.388;6.196;2023-08-31T04:25:46;110289.28;;;-145.32;100.00
14041;BME280;7095;51.388;6.196;2023-08-31T04:28:16;110806.75;;;-145.32;100.00
14041;BME280;7095;51.388;6.196;2023-08-31T04:30:45;110548.00;;;-145.32;100.00
14041;BME280;7095;51.388;6.196;2023-08-31T04:33:13;111065.50;;;-145.32;100.00
14041;BME280;7095;51.388;6.196;2023-08-31T04:35:42;111065.50;;;-145.32;100.00
14041;BME280;7095;51.388;6.196;2023-08-31T04:38:11;110806.75;;;-145.32;100.00
14041;BME280;7095;51.388;6.196;2023-08-31T04:40:39;111065.50;;;-145.32;100.00
14041;BME280;7095;51.388;6.196;2023-08-31T04:43:08;110806.75;;;-145.32;100.00
14041;BME280;7095;51.388;6.196;2023-08-31T04:45:39;110806.75;;;-145.32;100.00
14041;BME280;7095;51.388;6.196;2023-08-31T04:48:07;110548.00;;;-145.32;100.00
14041;BME280;7095;51.388;6.196;2023-08-31T04:50:36;110548.00;;;-145.32;100.00
14041;BME280;7095;51.388;6.196;2023-08-31T04:53:04;110806.75;;;-145.32;100.00
14041;BME280;7095;51.388;6.196;2023-08-31T04:55:33;111324.28;;;-145.32;100.00
14041;BME280;7095;51.388;6.196;2023-08-31T04:58:01;111324.28;;;-145.32;100.00
14041;BME280;7095;51.388;6.196;2023-08-31T05:00:30;111065.50;;;-145.32;100.00
14041;BME280;7095;51.388;6.196;2023-08-31T05:02:59;110806.75;;;-145.32;100.00
14041;BME280;7095;51.388;6.196;2023-08-31T05:05:28;111065.50;;;-145.32;100.00
14041;BME280;7095;51.388;6.196;2023-08-31T05:07:59;110806.75;;;-145.32;100.00
14041;BME280;7095;51.388;6.196;2023-08-31T05:10:27;111065.50;;;-145.32;100.00
14041;BME280;7095;51.388;6.196;2023-08-31T05:12:56;111065.50;;;-145.32;100.00
14041;BME280;7095;51.388;6.196;2023-08-31T05:15:24;111324.28;;;-145.32;100.00
14041;BME280;7095;51.388;6.196;2023-08-31T05:17:54;111065.50;;;-145.32;100.00
14041;BME280;7095;51.388;6.196;2023-08-31T05:20:24;111065.50;;;-145.32;100.00
14041;BME280;7095;51.388;6.196;2023-08-31T05:22:53;111324.28;;;-145.32;100.00
14041;BME280;7095;51.388;6.196;2023-08-31T05:25:24;111324.28;;;-145.32;100.00
14041;BME280;7095;51.388;6.196;2023-08-31T05:27:58;111583.06;;;-145.32;100.00
14041;BME280;7095;51.388;6.196;2023-08-31T05:30:27;111583.06;;;-145.32;100.00
14041;BME280;7095;51.388;6.196;2023-08-31T05:32:55;111841.88;;;-145.32;100.00
14041;BME280;7095;51.388;6.196;2023-08-31T05:35:25;111841.88;;;-145.32;100.00
14041;BME280;7095;51.388;6.196;2023-08-31T05:37:54;111583.06;;;-145.32;100.00
14041;BME280;7095;51.388;6.196;2023-08-31T05:40:22;111583.06;;;-145.32;100.00
14041;BME280;7095;51.388;6.196;2023-08-31T05:42:51;111841.88;;;-145.32;100.00
14041;BME280;7095;51.388;6.196;2023-08-31T05:45:19;111841.88;;;-145.32;100.00
14041;BME280;7095;51.388;6.196;2023-08-31T05:47:48;111841.88;;;-145.32;100.00
14041;BME280;7095;51.388;6.196;2023-08-31T05:50:16;111841.88;;;-145.32;100.00
14041;BME280;7095;51.388;6.196;2023-08-31T05:52:46;111841.88;;;-145.32;100.00
14041;BME280;7095;51.388;6.196;2023-08-31T05:55:15;111841.88;;;-145.32;100.00
14041;BME280;7095;51.388;6.196;2023-08-31T05:57:43;112100.69;;;-145.32;100.00
14041;BME280;7095;51.388;6.196;2023-08-31T06:00:12;112100.69;;;-145.32;100.00
14041;BME280;7095;51.388;6.196;2023-08-31T06:02:41;111841.88;;;-145.32;100.00
14041;BME280;7095;51.388;6.196;2023-08-31T06:05:10;111841.88;;;-145.32;100.00
14041;BME280;7095;51.388;6.196;2023-08-31T06:07:40;112100.69;;;-145.32;100.00
14041;BME280;7095;51.388;6.196;2023-08-31T06:10:10;111841.88;;;-145.32;100.00
14041;BME280;7095;51.388;6.196;2023-08-31T06:12:39;111841.88;;;-145.32;100.00
14041;BME280;7095;51.388;6.196;2023-08-31T06:15:08;111841.88;;;-145.32;100.00
14041;BME280;7095;51.388;6.196;2023-08-31T06:17:36;111841.88;;;-145.32;100.00
14041;BME280;7095;51.388;6.196;2023-08-31T06:20:05;111583.06;;;-145.32;100.00
14041;BME280;7095;51.388;6.196;2023-08-31T06:22:35;111583.06;;;-145.32;100.00
14041;BME280;7095;51.388;6.196;2023-08-31T06:25:04;111841.88;;;-145.32;100.00
14041;BME280;7095;51.388;6.196;2023-08-31T06:27:35;111583.06;;;-145.32;100.00
14041;BME280;7095;51.388;6.196;2023-08-31T06:30:04;111324.28;;;-145.32;100.00
14041;BME280;7095;51.388;6.196;2023-08-31T06:32:34;111324.28;;;-145.32;100.00
14041;BME280;7095;51.388;6.196;2023-08-31T06:35:03;111324.28;;;-145.32;100.00
14041;BME280;7095;51.388;6.196;2023-08-31T06:37:32;111324.28;;;-145.32;100.00
14041;BME280;7095;51.388;6.196;2023-08-31T06:40:00;110548.00;;;-145.32;100.00
14041;BME280;7095;51.388;6.196;2023-08-31T06:42:29;110548.00;;;-145.32;100.00
14041;BME280;7095;51.388;6.196;2023-08-31T06:44:59;110806.75;;;-145.32;100.00
14041;BME280;7095;51.388;6.196;2023-08-31T06:47:30;110806.75;;;-145.32;100.00
14041;BME280;7095;51.388;6.196;2023-08-31T06:49:58;110548.00;;;-145.32;100.00
14041;BME280;7095;51.388;6.196;2023-08-31T06:52:28;110548.00;;;-145.32;100.00
14041;BME280;7095;51.388;6.196;2023-08-31T06:54:59;110030.59;;;-145.32;100.00
14041;BME280;7095;51.388;6.196;2023-08-31T06:57:27;110289.28;;;-145.32;100.00
14041;BME280;7095;51.388;6.196;2023-08-31T06:59:56;109254.63;;;-145.32;100.00
14041;BME280;7095;51.388;6.196;2023-08-31T07:02:27;109513.28;;;-145.32;100.00
14041;BME280;7095;51.388;6.196;2023-08-31T07:04:55;108737.41;;;-145.32;100.00
14041;BME280;7095;51.388;6.196;2023-08-31T07:07:24;108996.00;;;-145.32;100.00
14041;BME280;7095;51.388;6.196;2023-08-31T07:09:53;108478.84;;;-145.32;100.00
14041;BME280;7095;51.388;6.196;2023-08-31T07:12:22;108478.84;;;-145.32;100.00
14041;BME280;7095;51.388;6.196;2023-08-31T07:14:50;108220.28;;;-145.32;100.00
14041;BME280;7095;51.388;6.196;2023-08-31T07:17:20;108220.28;;;-145.32;100.00
14041;BME280;7095;51.388;6.196;2023-08-31T07:19:50;107703.22;;;-145.32;100.00
14041;BME280;7095;51.388;6.196;2023-08-31T07:22:18;107186.22;;;-145.32;100.00
14041;BME280;7095;51.388;6.196;2023-08-31T07:24:47;106152.47;;;-145.32;100.00
14041;BME280;7095;51.388;6.196;2023-08-31T07:27:17;106410.88;;;-145.32;100.00
14041;BME280;7095;51.388;6.196;2023-08-31T07:29:46;106410.88;;;-145.32;100.00
14041;BME280;7095;51.388;6.196;2023-08-31T07:32:14;106152.47;;;-145.32;100.00
14041;BME280;7095;51.388;6.196;2023-08-31T07:34:43;105635.72;;;-145.32;100.00
14041;BME280;7095;51.388;6.196;2023-08-31T07:37:12;106669.31;;;-145.32;100.00
14041;BME280;7095;51.388;6.196;2023-08-31T07:39:41;105635.72;;;-145.32;100.00
14041;BME280;7095;51.388;6.196;2023-08-31T07:42:09;103311.25;;;-145.32;100.00
14041;BME280;7095;51.388;6.196;2023-08-31T07:44:38;104602.44;;;-145.32;100.00
14041;BME280;7095;51.388;6.196;2023-08-31T07:47:08;103827.66;;;-145.32;100.00
14041;BME280;7095;51.388;6.196;2023-08-31T07:49:43;104602.44;;;-145.32;100.00
14041;BME280;7095;51.388;6.196;2023-08-31T07:52:12;101762.47;;;-145.32;100.00
14041;BME280;7095;51.388;6.196;2023-08-31T07:54:41;99698.47;;;-145.32;100.00
14041;BME280;7095;51.388;6.196;2023-08-31T07:57:09;97635.72;;;-145.32;100.00
14041;BME280;7095;51.388;6.196;2023-08-31T07:59:38;97893.50;;;-145.32;100.00
14041;BME280;7095;51.388;6.196;2023-08-31T08:02:07;95316.59;;;-145.32;100.00
14041;BME280;7095;51.388;6.196;2023-08-31T08:04:36;96089.47;;;-145.32;100.00
14041;BME280;7095;51.388;6.196;2023-08-31T08:07:04;97635.72;;;-145.32;100.00
14041;BME280;7095;51.388;6.196;2023-08-31T08:09:34;96347.13;;;-145.32;100.00
14041;BME280;7095;51.388;6.196;2023-08-31T08:12:03;91454.81;;;-145.32;100.00
14041;BME280;7095;51.388;6.196;2023-08-31T08:14:32;87597.34;;;-145.32;100.00
14041;BME280;7095;51.388;6.196;2023-08-31T08:17:01;90682.97;;;-145.32;100.00
14041;BME280;7095;51.388;6.196;2023-08-31T08:19:30;90940.22;;;-145.32;100.00
14041;BME280;7095;51.388;6.196;2023-08-31T08:21:58;89654.13;;;-145.32;100.00
14041;BME280;7095;51.388;6.196;2023-08-31T08:24:27;90682.97;;;-145.32;100.00
14041;BME280;7095;51.388;6.196;2023-08-31T08:26:57;84514.44;;;-145.32;100.00
14041;BME280;7095;51.388;6.196;2023-08-31T08:29:26;81434.31;;;-145.32;100.00
14041;BME280;7095;51.388;6.196;2023-08-31T08:31:54;81947.50;;;-145.32;100.00
14041;BME280;7095;51.388;6.196;2023-08-31T08:34:23;77844.31;;;-145.32;100.00
14041;BME280;7095;51.388;6.196;2023-08-31T08:36:51;76819.28;;;-145.32;100.00
14041;BME280;7095;51.388;6.196;2023-08-31T08:39:20;79895.28;;;-145.32;100.00
14041;BME280;7095;51.388;6.196;2023-08-31T08:41:49;77844.31;;;-145.32;100.00
14041;BME280;7095;51.388;6.196;2023-08-31T08:44:21;72978.16;;;-145.32;100.00
14041;BME280;7095;51.388;6.196;2023-08-31T08:46:52;66128.88;;;-145.32;100.00
14041;BME280;7095;51.388;6.196;2023-08-31T08:49:21;67244.50;;;-145.32;100.00
14041;BME280;7095;51.388;6.196;2023-08-31T08:51:51;66815.38;;;-145.32;100.00
14041;BME280;7095;51.388;6.196;2023-08-31T08:54:22;66565.91;;;-145.32;100.00
14041;BME280;7095;51.388;6.196;2023-08-31T08:56:50;66498.03;;;-145.32;100.00
14041;BME280;7095;51.388;6.196;2023-08-31T08:59:20;63737.16;;;-145.32;100.00
14041;BME280;7095;51.388;6.196;2023-08-31T09:01:49;61157.81;;;-145.32;100.00
14041;BME280;7095;51.388;6.196;2023-08-31T09:04:19;59761.31;;;-145.32;100.00
14041;BME280;7095;51.388;6.196;2023-08-31T09:06:47;58930.84;;;-145.32;100.00
14041;BME280;7095;51.388;6.196;2023-08-31T09:09:17;58950.78;;;-145.32;100.00
14041;BME280;7095;51.388;6.196;2023-08-31T09:11:46;58526.66;;;-145.32;100.00
14041;BME280;7095;51.388;6.196;2023-08-31T09:14:15;58329.56;;;-145.32;100.00
14041;BME280;7095;51.388;6.196;2023-08-31T09:16:46;57553.19;;;-145.32;100.00
14041;BME280;7095;51.388;6.196;2023-08-31T09:19:19;57596.97;;;-145.32;100.00
14041;BME280;7095;51.388;6.196;2023-08-31T09:21:48;57069.56;;;-145.32;100.00
14041;BME280;7095;51.388;6.196;2023-08-31T09:24:17;56983.97;;;-145.32;100.00
14041;BME280;7095;51.388;6.196;2023-08-31T09:26:47;57489.50;;;-145.32;100.00
14041;BME280;7095;51.388;6.196;2023-08-31T09:29:16;58190.19;;;-145.32;100.00
14041;BME280;7095;51.388;6.196;2023-08-31T09:31:46;56792.94;;;-145.32;100.00
14041;BME280;7095;51.388;6.196;2023-08-31T09:34:16;57222.78;;;-145.32;100.00
14041;BME280;7095;51.388;6.196;2023-08-31T09:36:44;57658.69;;;-145.32;100.00
14041;BME280;7095;51.388;6.196;2023-08-31T09:39:14;57429.78;;;-145.32;100.00
14041;BME280;7095;51.388;6.196;2023-08-31T09:41:52;56916.31;;;-145.32;100.00
14041;BME280;7095;51.388;6.196;2023-08-31T09:44:21;56999.91;;;-145.32;100.00
14041;BME280;7095;51.388;6.196;2023-08-31T09:46:52;56930.25;;;-145.32;100.00
14041;BME280;7095;51.388;6.196;2023-08-31T09:49:21;56703.38;;;-145.32;100.00
14041;BME280;7095;51.388;6.196;2023-08-31T09:51:50;56570.06;;;-145.32;100.00
14041;BME280;7095;51.388;6.196;2023-08-31T09:54:20;56777.00;;;-145.32;100.00
14041;BME280;7095;51.388;6.196;2023-08-31T09:56:48;55786.16;;;-145.32;100.00
14041;BME280;7095;51.388;6.196;2023-08-31T09:59:17;55933.38;;;-145.32;100.00
14041;BME280;7095;51.388;6.196;2023-08-31T10:01:46;55883.63;;;-145.32;100.00
14041;BME280;7095;51.388;6.196;2023-08-31T10:04:17;55718.50;;;-145.32;100.00
14041;BME280;7095;51.388;6.196;2023-08-31T10:06:45;55257.00;;;-145.32;100.00
14041;BME280;7095;51.388;6.196;2023-08-31T10:09:15;55320.66;;;-145.32;100.00
14041;BME280;7095;51.388;6.196;2023-08-31T10:11:44;54727.94;;;-145.32;100.00
14041;BME280;7095;51.388;6.196;2023-08-31T10:14:13;54775.69;;;-145.32;100.00
14041;BME280;7095;51.388;6.196;2023-08-31T10:16:44;54521.13;;;-145.32;100.00
14041;BME280;7095;51.388;6.196;2023-08-31T10:19:13;54493.28;;;-145.32;100.00
14041;BME280;7095;51.388;6.196;2023-08-31T10:21:44;54477.38;;;-145.32;100.00
14041;BME280;7095;51.388;6.196;2023-08-31T10:24:12;54507.19;;;-145.32;100.00
14041;BME280;7095;51.388;6.196;2023-08-31T10:26:41;54544.97;;;-145.32;100.00
14041;BME280;7095;51.388;6.196;2023-08-31T10:29:26;54173.13;;;-145.32;100.00
14041;BME280;7095;51.388;6.196;2023-08-31T10:32:00;54278.50;;;-145.32;100.00
14041;BME280;7095;51.388;6.196;2023-08-31T10:34:36;54242.72;;;-145.32;100.00
14041;BME280;7095;51.388;6.196;2023-08-31T10:37:21;54302.38;;;-145.32;100.00
14041;BME280;7095;51.388;6.196;2023-08-31T10:40:06;54079.66;;;-145.32;100.00
14041;BME280;7095;51.388;6.196;2023-08-31T10:42:42;53980.25;;;-145.32;100.00
14041;BME280;7095;51.388;6.196;2023-08-31T10:45:11;54025.97;;;-145.32;100.00
14041;BME280;7095;51.388;6.196;2023-08-31T10:47:40;54051.81;;;-145.32;100.00
14041;BME280;7095;51.388;6.196;2023-08-31T10:50:22;53968.31;;;-145.32;100.00
14041;BME280;7095;51.388;6.196;2023-08-31T10:52:52;53916.63;;;-145.32;100.00
14041;BME280;7095;51.388;6.196;2023-08-31T10:55:23;53833.13;;;-145.32;100.00
14041;BME280;7095;51.388;6.196;2023-08-31T10:57:56;53789.38;;;-145.32;100.00
14041;BME280;7095;51.388;6.196;2023-08-31T11:00:46;53847.03;;;-145.32;100.00
14041;BME280;7095;51.388;6.196;2023-08-31T11:03:15;53888.78;;;-145.32;100.00
14041;BME280;7095;51.388;6.196;2023-08-31T11:05:50;53845.03;;;-145.32;100.00
14041;BME280;7095;51.388;6.196;2023-08-31T11:08:23;53872.88;;;-145.32;100.00
14041;BME280;7095;51.388;6.196;2023-08-31T11:10:51;53831.13;;;-145.32;100.00
14041;BME280;7095;51.388;6.196;2023-08-31T11:13:21;53876.84;;;-145.32;100.00
14041;BME280;7095;51.388;6.196;2023-08-31T11:15:51;53725.75;;;-145.32;100.00
14041;BME280;7095;51.388;6.196;2023-08-31T11:18:21;53678.03;;;-145.32;100.00
14041;BME280;7095;51.388;6.196;2023-08-31T11:20:50;53682.00;;;-145.32;100.00
14041;BME280;7095;51.388;6.196;2023-08-31T11:23:19;53672.06;;;-145.32;100.00
14041;BME280;7095;51.388;6.196;2023-08-31T11:25:50;53650.19;;;-145.32;100.00
14041;BME280;7095;51.388;6.196;2023-08-31T11:28:19;53622.38;;;-145.32;95.93
14041;BME280;7095;51.388;6.196;2023-08-31T11:30:48;53606.47;;;-145.32;99.25
14041;BME280;7095;51.388;6.196;2023-08-31T11:33:17;53640.25;;;-145.32;97.00
14041;BME280;7095;51.388;6.196;2023-08-31T11:35:45;53664.13;;;-145.32;99.22
14041;BME280;7095;51.388;6.196;2023-08-31T11:38:14;53656.16;;;-145.32;100.00
14041;BME280;7095;51.388;6.196;2023-08-31T11:40:42;53634.28;;;-145.32;100.00
14041;BME280;7095;51.388;6.196;2023-08-31T11:43:14;53638.28;;;-145.32;100.00
14041;BME280;7095;51.388;6.196;2023-08-31T11:45:44;53646.22;;;-145.32;100.00
14041;BME280;7095;51.388;6.196;2023-08-31T11:48:13;53632.31;;;-145.32;100.00
14041;BME280;7095;51.388;6.196;2023-08-31T11:50:41;53674.06;;;-145.32;100.00
14041;BME280;7095;51.388;6.196;2023-08-31T11:53:10;53701.88;;;-145.32;100.00
14041;BME280;7095;51.388;6.196;2023-08-31T11:55:49;53662.13;;;-145.32;100.00
14041;BME280;7095;51.388;6.196;2023-08-31T11:58:19;53650.19;;;-145.32;100.00
14041;BME280;7095;51.388;6.196;2023-08-31T12:00:54;53618.38;;;-145.32;100.00
14041;BME280;7095;51.388;6.196;2023-08-31T12:03:23;53670.09;;;-145.32;100.00
14041;BME280;7095;51.388;6.196;2023-08-31T12:06:15;53650.19;;;-145.32;100.00
14041;BME280;7095;51.388;6.196;2023-08-31T12:08:43;53654.19;;;-145.32;100.00
14041;BME280;7095;51.388;6.196;2023-08-31T12:11:12;53682.00;;;-145.32;100.00
14041;BME280;7095;51.388;6.196;2023-08-31T12:13:43;53634.28;;;-145.32;95.04
14041;BME280;7095;51.388;6.196;2023-08-31T12:16:12;53610.44;;;-145.32;98.73
14041;BME280;7095;51.388;6.196;2023-08-31T12:18:41;53640.25;;;-145.32;98.20
14041;BME280;7095;51.388;6.196;2023-08-31T12:21:13;53618.38;;;-145.32;91.77
14041;BME280;7095;51.388;6.196;2023-08-31T12:23:41;53594.53;;;-145.32;89.26
14041;BME280;7095;51.388;6.196;2023-08-31T12:26:10;53580.63;;;-145.32;90.98
14041;BME280;7095;51.388;6.196;2023-08-31T12:28:39;53578.63;;;-145.32;89.65
14041;BME280;7095;51.388;6.196;2023-08-31T12:31:09;53564.72;;;-145.32;78.74
14041;BME280;7095;51.388;6.196;2023-08-31T12:33:38;53548.81;;;-145.32;83.94
14041;BME280;7095;51.388;6.196;2023-08-31T12:36:06;53536.88;;;-145.32;84.36
14041;BME280;7095;51.388;6.196;2023-08-31T12:38:35;53560.72;;;-145.32;79.32
14041;BME280;7095;51.388;6.196;2023-08-31T12:41:03;53520.97;;;-145.32;79.26
14041;BME280;7095;51.388;6.196;2023-08-31T12:43:32;53479.22;;;-145.32;75.87
14041;BME280;7095;51.388;6.196;2023-08-31T12:46:01;53471.28;;;-145.32;71.80
14041;BME280;7095;51.388;6.196;2023-08-31T12:48:34;53515.00;;;-145.32;72.92